createdAt,value
2018-07-15T00:01:26.657Z,19.80
2018-07-15T00:02:27.069Z,19.72
2018-07-15T00:03:26.526Z,19.68
2018-07-15T00:04:26.512Z,19.70
2018-07-15T00:05:26.523Z,19.62
2018-07-15T00:06:26.577Z,19.68
2018-07-15T00:07:26.516Z,19.58
2018-07-15T00:08:26.452Z,19.58
2018-07-15T00:09:26.594Z,19.57
2018-07-15T00:10:26.592Z,19.61
2018-07-15T00:11:27.035Z,19.52
2018-07-15T00:12:27.019Z,19.43
2018-07-15T00:13:26.597Z,19.52
2018-07-15T00:14:26.613Z,19.53
2018-07-15T00:15:26.586Z,19.49
2018-07-15T00:16:26.586Z,19.47
2018-07-15T00:17:26.587Z,19.53
2018-07-15T00:18:26.592Z,19.49
2018-07-15T00:19:26.598Z,19.46
2018-07-15T00:20:26.594Z,19.47
2018-07-15T00:21:26.663Z,19.34
2018-07-15T00:22:26.614Z,19.35
2018-07-15T00:23:26.552Z,19.34
2018-07-15T00:24:26.676Z,19.32
2018-07-15T00:25:26.674Z,19.27
2018-07-15T00:26:28.442Z,19.27
2018-07-15T00:27:26.637Z,19.20
2018-07-15T00:28:26.681Z,19.27
2018-07-15T00:29:26.622Z,19.25
2018-07-15T00:30:26.552Z,19.25
2018-07-15T00:31:26.524Z,19.16
2018-07-15T00:32:26.537Z,19.17
2018-07-15T00:33:27.142Z,19.21
2018-07-15T00:34:26.579Z,19.25
2018-07-15T00:35:26.500Z,19.21
2018-07-15T00:36:26.620Z,19.30
2018-07-15T00:37:26.572Z,19.27
2018-07-15T00:38:26.527Z,19.24
2018-07-15T00:39:26.574Z,19.24
2018-07-15T00:40:26.648Z,19.25
2018-07-15T00:41:26.566Z,19.16
2018-07-15T00:42:26.652Z,19.13
2018-07-15T00:43:26.578Z,19.10
2018-07-15T00:44:26.507Z,19.13
2018-07-15T00:45:26.493Z,19.09
2018-07-15T00:46:26.507Z,19.02
2018-07-15T00:47:26.437Z,19.09
2018-07-15T00:48:26.515Z,19.07
2018-07-15T00:49:26.556Z,19.12
2018-07-15T00:50:26.527Z,18.93
2018-07-15T00:51:26.523Z,18.94
2018-07-15T00:52:26.494Z,19.02
2018-07-15T00:53:26.566Z,18.97
2018-07-15T00:54:26.554Z,18.76
2018-07-15T00:55:26.543Z,18.75
2018-07-15T00:56:26.556Z,18.83
2018-07-15T00:57:26.562Z,18.76
2018-07-15T00:58:26.560Z,18.69
2018-07-15T00:59:26.555Z,18.69
2018-07-15T01:00:26.568Z,18.71
2018-07-15T01:01:26.563Z,18.69
2018-07-15T01:02:26.588Z,18.79
2018-07-15T01:03:28.328Z,18.76
2018-07-15T01:04:26.637Z,18.71
2018-07-15T01:05:26.549Z,18.75
2018-07-15T01:06:26.574Z,18.74
2018-07-15T01:07:26.524Z,18.68
2018-07-15T01:08:26.544Z,18.72
2018-07-15T01:09:26.543Z,18.64
2018-07-15T01:10:26.525Z,18.71
2018-07-15T01:11:26.514Z,18.69
2018-07-15T01:12:26.574Z,18.66
2018-07-15T01:13:26.758Z,18.56
2018-07-15T01:14:26.796Z,18.69
2018-07-15T01:15:27.049Z,18.59
2018-07-15T01:16:26.524Z,18.59
2018-07-15T01:17:28.363Z,18.65
2018-07-15T01:18:26.546Z,18.64
2018-07-15T01:19:26.556Z,18.50
2018-07-15T01:20:26.536Z,18.59
2018-07-15T01:21:26.698Z,18.56
2018-07-15T01:22:26.563Z,18.54
2018-07-15T01:23:26.595Z,18.47
2018-07-15T01:24:26.572Z,18.49
2018-07-15T01:25:26.590Z,18.41
2018-07-15T01:26:26.526Z,18.51
2018-07-15T01:27:26.602Z,18.46
2018-07-15T01:28:26.587Z,18.49
2018-07-15T01:29:26.755Z,18.53
2018-07-15T01:30:26.705Z,18.41
2018-07-15T01:31:26.584Z,18.46
2018-07-15T01:32:26.533Z,18.38
2018-07-15T01:33:26.598Z,18.49
2018-07-15T01:34:28.356Z,18.39
2018-07-15T01:35:26.776Z,18.42
2018-07-15T01:36:26.603Z,18.36
2018-07-15T01:37:26.659Z,18.42
2018-07-15T01:38:26.667Z,18.39
2018-07-15T01:39:26.607Z,18.38
2018-07-15T01:40:26.770Z,18.32
2018-07-15T01:41:26.701Z,18.29
2018-07-15T01:42:26.862Z,18.28
2018-07-15T01:43:26.571Z,18.26
2018-07-15T01:44:26.523Z,18.35
2018-07-15T01:45:26.547Z,18.39
2018-07-15T01:46:26.535Z,18.32
2018-07-15T01:47:26.558Z,18.28
2018-07-15T01:48:26.848Z,18.26
2018-07-15T01:49:26.589Z,18.35
2018-07-15T01:50:26.565Z,18.28
2018-07-15T01:51:28.588Z,18.29
2018-07-15T01:52:26.573Z,18.31
2018-07-15T01:53:26.570Z,18.32
2018-07-15T01:54:26.569Z,18.34
2018-07-15T01:55:28.374Z,18.26
2018-07-15T01:56:26.713Z,18.19
2018-07-15T01:57:26.541Z,18.19
2018-07-15T01:58:26.196Z,18.14
2018-07-15T01:59:27.072Z,18.11
2018-07-15T02:00:26.593Z,18.13
2018-07-15T02:01:26.603Z,18.13
2018-07-15T02:02:26.626Z,18.16
2018-07-15T02:03:26.601Z,18.20
2018-07-15T02:04:26.675Z,18.14
2018-07-15T02:05:26.599Z,18.10
2018-07-15T02:06:26.600Z,18.10
2018-07-15T02:07:26.628Z,18.09
2018-07-15T02:08:26.601Z,18.16
2018-07-15T02:09:26.631Z,17.98
2018-07-15T02:10:26.584Z,18.01
2018-07-15T02:11:26.668Z,17.91
2018-07-15T02:12:26.718Z,17.96
2018-07-15T02:13:26.718Z,17.94
2018-07-15T02:14:26.678Z,17.95
2018-07-15T02:15:26.747Z,17.98
2018-07-15T02:16:27.564Z,18.01
2018-07-15T02:17:26.586Z,17.92
2018-07-15T02:18:27.062Z,18.01
2018-07-15T02:19:26.544Z,17.98
2018-07-15T02:20:26.586Z,17.92
2018-07-15T02:21:26.791Z,17.99
2018-07-15T02:22:26.591Z,17.94
2018-07-15T02:23:26.585Z,17.89
2018-07-15T02:24:26.591Z,17.92
2018-07-15T02:25:26.572Z,17.76
2018-07-15T02:26:26.595Z,17.81
2018-07-15T02:27:26.603Z,17.70
2018-07-15T02:28:26.720Z,17.76
2018-07-15T02:29:26.608Z,17.89
2018-07-15T02:30:26.599Z,17.74
2018-07-15T02:31:26.775Z,17.65
2018-07-15T02:32:26.722Z,17.74
2018-07-15T02:33:26.639Z,17.81
2018-07-15T02:34:26.593Z,17.70
2018-07-15T02:35:26.609Z,17.63
2018-07-15T02:36:26.613Z,17.57
2018-07-15T02:37:26.651Z,17.55
2018-07-15T02:38:26.613Z,17.65
2018-07-15T02:39:26.635Z,17.58
2018-07-15T02:40:26.610Z,17.49
2018-07-15T02:41:26.726Z,17.57
2018-07-15T02:42:26.553Z,17.58
2018-07-15T02:43:26.560Z,17.62
2018-07-15T02:44:26.585Z,17.54
2018-07-15T02:45:26.590Z,17.53
2018-07-15T02:46:27.079Z,17.62
2018-07-15T02:47:26.581Z,17.51
2018-07-15T02:48:26.534Z,17.62
2018-07-15T02:49:26.582Z,17.54
2018-07-15T02:50:26.590Z,17.53
2018-07-15T02:51:26.726Z,17.57
2018-07-15T02:52:26.509Z,17.62
2018-07-15T02:53:26.748Z,17.57
2018-07-15T02:54:26.926Z,17.46
2018-07-15T02:55:26.828Z,17.46
2018-07-15T02:56:27.170Z,17.38
2018-07-15T02:57:26.472Z,17.40
2018-07-15T02:58:26.502Z,17.43
2018-07-15T02:59:26.578Z,17.36
2018-07-15T03:00:26.582Z,17.38
2018-07-15T03:01:26.621Z,17.38
2018-07-15T03:02:26.572Z,17.38
2018-07-15T03:03:26.555Z,17.42
2018-07-15T03:04:26.558Z,17.40
2018-07-15T03:05:26.561Z,17.30
2018-07-15T03:06:26.597Z,17.33
2018-07-15T03:07:26.588Z,17.24
2018-07-15T03:08:26.508Z,17.28
2018-07-15T03:09:26.650Z,17.32
2018-07-15T03:10:26.560Z,17.32
2018-07-15T03:11:26.558Z,17.25
2018-07-15T03:12:26.514Z,17.22
2018-07-15T03:13:26.590Z,17.30
2018-07-15T03:14:26.643Z,17.21
2018-07-15T03:15:28.362Z,17.20
2018-07-15T03:16:26.601Z,17.25
2018-07-15T03:17:26.662Z,17.28
2018-07-15T03:18:26.641Z,17.15
2018-07-15T03:19:28.353Z,17.21
2018-07-15T03:20:26.558Z,17.22
2018-07-15T03:21:26.556Z,17.28
2018-07-15T03:22:26.498Z,17.32
2018-07-15T03:23:26.508Z,17.22
2018-07-15T03:24:26.560Z,17.27
2018-07-15T03:25:26.556Z,17.18
2018-07-15T03:26:26.581Z,17.21
2018-07-15T03:27:26.556Z,17.24
2018-07-15T03:28:26.599Z,17.22
2018-07-15T03:29:26.519Z,17.30
2018-07-15T03:30:26.553Z,17.27
2018-07-15T03:31:26.611Z,17.22
2018-07-15T03:32:26.581Z,17.22
2018-07-15T03:33:26.581Z,17.17
2018-07-15T03:34:26.502Z,17.15
2018-07-15T03:35:26.555Z,17.14
2018-07-15T03:36:26.557Z,17.10
2018-07-15T03:37:26.591Z,17.28
2018-07-15T03:38:26.576Z,17.15
2018-07-15T03:39:26.611Z,17.18
2018-07-15T03:40:26.596Z,17.24
2018-07-15T03:41:26.534Z,17.12
2018-07-15T03:42:26.596Z,17.30
2018-07-15T03:43:28.419Z,17.21
2018-07-15T03:44:26.572Z,17.15
2018-07-15T03:45:26.587Z,17.15
2018-07-15T03:46:26.556Z,17.20
2018-07-15T03:47:26.496Z,17.24
2018-07-15T03:48:26.598Z,17.20
2018-07-15T03:49:26.548Z,17.17
2018-07-15T03:50:26.571Z,17.10
2018-07-15T03:51:26.506Z,17.05
2018-07-15T03:52:26.582Z,17.07
2018-07-15T03:53:26.559Z,17.05
2018-07-15T03:54:26.567Z,16.98
2018-07-15T03:55:26.542Z,17.05
2018-07-15T03:56:26.484Z,17.00
2018-07-15T03:57:26.583Z,17.09
2018-07-15T03:58:26.591Z,17.15
2018-07-15T03:59:26.554Z,17.05
2018-07-15T04:00:26.522Z,16.99
2018-07-15T04:01:26.507Z,17.07
2018-07-15T04:02:26.605Z,17.10
2018-07-15T04:03:26.555Z,16.90
2018-07-15T04:04:26.553Z,16.88
2018-07-15T04:05:26.594Z,16.96
2018-07-15T04:06:26.600Z,16.98
2018-07-15T04:07:26.600Z,16.92
2018-07-15T04:08:26.598Z,17.06
2018-07-15T04:09:28.385Z,17.10
2018-07-15T04:10:28.389Z,17.05
2018-07-15T04:11:26.581Z,17.02
2018-07-15T04:12:26.494Z,17.07
2018-07-15T04:13:26.581Z,17.02
2018-07-15T04:14:26.507Z,17.09
2018-07-15T04:15:26.504Z,17.05
2018-07-15T04:16:26.513Z,17.06
2018-07-15T04:17:26.579Z,17.14
2018-07-15T04:18:26.501Z,17.14
2018-07-15T04:19:26.517Z,17.09
2018-07-15T04:20:26.153Z,17.05
2018-07-15T04:21:26.573Z,17.05
2018-07-15T04:22:26.573Z,17.12
2018-07-15T04:23:26.582Z,17.17
2018-07-15T04:24:26.544Z,17.05
2018-07-15T04:25:26.611Z,17.05
2018-07-15T04:26:26.541Z,17.09
2018-07-15T04:27:28.477Z,17.02
2018-07-15T04:28:26.544Z,17.17
2018-07-15T04:29:26.585Z,17.09
2018-07-15T04:30:26.587Z,17.14
2018-07-15T04:31:26.563Z,17.02
2018-07-15T04:32:26.637Z,17.05
2018-07-15T04:33:26.567Z,17.03
2018-07-15T04:34:26.633Z,17.06
2018-07-15T04:35:28.372Z,17.12
2018-07-15T04:36:26.577Z,16.99
2018-07-15T04:37:26.663Z,17.03
2018-07-15T04:38:26.584Z,16.98
2018-07-15T04:39:26.584Z,16.95
2018-07-15T04:40:26.560Z,16.95
2018-07-15T04:41:26.518Z,16.91
2018-07-15T04:42:26.651Z,17.02
2018-07-15T04:43:26.565Z,16.99
2018-07-15T04:44:26.804Z,16.99
2018-07-15T04:45:26.653Z,17.00
2018-07-15T04:46:26.618Z,17.02
2018-07-15T04:47:26.608Z,17.07
2018-07-15T04:48:26.684Z,17.10
2018-07-15T04:49:26.639Z,17.07
2018-07-15T04:50:26.189Z,17.05
2018-07-15T04:51:26.665Z,17.09
2018-07-15T04:52:26.651Z,17.00
2018-07-15T04:53:26.679Z,16.98
2018-07-15T04:54:26.688Z,17.10
2018-07-15T04:55:27.119Z,17.09
2018-07-15T04:56:26.598Z,17.15
2018-07-15T04:57:26.607Z,17.15
2018-07-15T04:58:26.841Z,17.14
2018-07-15T04:59:26.610Z,17.15
2018-07-15T05:00:27.096Z,17.14
2018-07-15T05:01:26.610Z,17.21
2018-07-15T05:02:26.863Z,17.15
2018-07-15T05:03:28.620Z,17.22
2018-07-15T05:04:26.591Z,17.22
2018-07-15T05:05:26.649Z,17.33
2018-07-15T05:06:26.191Z,17.24
2018-07-15T05:07:26.599Z,17.24
2018-07-15T05:08:26.618Z,17.28
2018-07-15T05:09:26.650Z,17.28
2018-07-15T05:10:26.662Z,17.30
2018-07-15T05:11:28.403Z,17.27
2018-07-15T05:12:26.601Z,17.32
2018-07-15T05:13:27.146Z,17.40
2018-07-15T05:14:26.622Z,17.53
2018-07-15T05:15:26.766Z,17.45
2018-07-15T05:16:26.606Z,17.51
2018-07-15T05:17:26.209Z,17.45
2018-07-15T05:18:26.886Z,17.58
2018-07-15T05:19:26.711Z,17.45
2018-07-15T05:20:27.107Z,17.62
2018-07-15T05:21:26.165Z,17.53
2018-07-15T05:22:26.764Z,17.54
2018-07-15T05:23:26.578Z,17.46
2018-07-15T05:24:26.655Z,17.62
2018-07-15T05:25:26.645Z,17.58
2018-07-15T05:26:26.636Z,17.70
2018-07-15T05:27:28.474Z,17.63
2018-07-15T05:28:26.621Z,17.71
2018-07-15T05:29:26.524Z,17.68
2018-07-15T05:30:26.616Z,17.80
2018-07-15T05:31:26.553Z,17.91
2018-07-15T05:32:26.606Z,17.84
2018-07-15T05:33:26.572Z,17.96
2018-07-15T05:34:26.638Z,17.99
2018-07-15T05:35:26.633Z,17.99
2018-07-15T05:36:26.563Z,17.91
2018-07-15T05:37:26.558Z,17.96
2018-07-15T05:38:26.644Z,18.01
2018-07-15T05:39:26.653Z,17.99
2018-07-15T05:40:26.544Z,17.98
2018-07-15T05:41:26.584Z,17.98
2018-07-15T05:42:26.582Z,17.99
2018-07-15T05:44:26.662Z,18.01
2018-07-15T05:45:26.636Z,18.05
2018-07-15T05:46:26.977Z,18.11
2018-07-15T05:47:26.120Z,18.01
2018-07-15T05:48:27.148Z,18.02
2018-07-15T05:49:26.788Z,18.16
2018-07-15T05:50:27.136Z,18.26
2018-07-15T05:51:26.673Z,18.28
2018-07-15T05:52:26.777Z,18.26
2018-07-15T05:53:26.592Z,18.29
2018-07-15T05:54:26.687Z,18.35
2018-07-15T05:55:27.155Z,18.31
2018-07-15T05:56:26.638Z,18.44
2018-07-15T05:57:26.682Z,18.35
2018-07-15T05:58:26.613Z,18.41
2018-07-15T05:59:26.679Z,18.46
2018-07-15T06:00:26.704Z,18.49
2018-07-15T06:01:26.682Z,18.49
2018-07-15T06:02:27.252Z,18.51
2018-07-15T06:03:26.697Z,18.59
2018-07-15T06:04:26.878Z,18.54
2018-07-15T06:05:27.188Z,18.65
2018-07-15T06:06:27.241Z,18.59
2018-07-15T06:07:26.022Z,18.64
2018-07-15T06:08:26.646Z,18.69
2018-07-15T06:09:26.619Z,18.75
2018-07-15T06:10:26.652Z,18.72
2018-07-15T06:11:26.659Z,18.74
2018-07-15T06:12:26.628Z,18.76
2018-07-15T06:13:26.589Z,18.90
2018-07-15T06:14:26.640Z,18.96
2018-07-15T06:15:26.622Z,18.93
2018-07-15T06:16:26.637Z,18.93
2018-07-15T06:17:26.586Z,18.78
2018-07-15T06:18:26.673Z,18.82
2018-07-15T06:19:26.600Z,18.90
2018-07-15T06:20:26.661Z,18.90
2018-07-15T06:21:26.653Z,18.96
2018-07-15T06:22:26.556Z,19.07
2018-07-15T06:23:26.613Z,19.12
2018-07-15T06:24:26.605Z,19.15
2018-07-15T06:25:26.602Z,19.10
2018-07-15T06:26:26.580Z,19.13
2018-07-15T06:27:26.617Z,19.07
2018-07-15T06:28:26.639Z,19.09
2018-07-15T06:29:26.595Z,19.07
2018-07-15T06:30:26.594Z,19.17
2018-07-15T06:31:26.648Z,19.10
2018-07-15T06:32:26.645Z,19.25
2018-07-15T06:33:26.681Z,19.31
2018-07-15T06:34:26.659Z,19.30
2018-07-15T06:35:26.624Z,19.28
2018-07-15T06:36:26.660Z,19.39
2018-07-15T06:37:26.667Z,19.30
2018-07-15T06:38:26.664Z,19.32
2018-07-15T06:39:26.645Z,19.35
2018-07-15T06:40:26.673Z,19.34
2018-07-15T06:41:26.649Z,19.27
2018-07-15T06:42:28.440Z,19.30
2018-07-15T06:43:27.169Z,19.34
2018-07-15T06:44:26.797Z,19.47
2018-07-15T06:45:26.628Z,19.46
2018-07-15T06:46:27.213Z,19.53
2018-07-15T06:47:26.636Z,19.53
2018-07-15T06:48:27.304Z,19.62
2018-07-15T06:49:26.824Z,19.64
2018-07-15T06:50:27.167Z,19.64
2018-07-15T06:51:26.908Z,19.65
2018-07-15T06:52:26.635Z,19.68
2018-07-15T06:53:26.655Z,19.67
2018-07-15T06:54:26.633Z,19.72
2018-07-15T06:55:26.632Z,19.75
2018-07-15T06:56:26.610Z,19.80
2018-07-15T06:57:26.619Z,19.86
2018-07-15T06:58:26.609Z,19.80
2018-07-15T06:59:27.238Z,19.89
2018-07-15T07:00:27.857Z,19.95
2018-07-15T07:01:26.074Z,19.90
2018-07-15T07:02:26.905Z,19.95
2018-07-15T07:03:26.355Z,20.01
2018-07-15T07:04:26.706Z,20.10
2018-07-15T07:05:26.685Z,20.02
2018-07-15T07:06:26.680Z,20.01
2018-07-15T07:07:26.934Z,19.95
2018-07-15T07:08:27.315Z,20.01
2018-07-15T07:09:26.680Z,20.02
2018-07-15T07:10:26.655Z,20.02
2018-07-15T07:11:26.838Z,20.10
2018-07-15T07:12:26.682Z,20.10
2018-07-15T07:13:26.744Z,20.13
2018-07-15T07:14:26.681Z,20.20
2018-07-15T07:15:26.704Z,20.25
2018-07-15T07:16:26.760Z,20.33
2018-07-15T07:17:26.671Z,20.25
2018-07-15T07:18:26.708Z,20.22
2018-07-15T07:19:26.810Z,20.35
2018-07-15T07:20:26.765Z,20.31
2018-07-15T07:21:26.813Z,20.33
2018-07-15T07:22:26.685Z,20.30
2018-07-15T07:23:26.811Z,20.30
2018-07-15T07:24:26.135Z,20.27
2018-07-15T07:25:26.838Z,20.42
2018-07-15T07:26:26.685Z,20.34
2018-07-15T07:27:26.699Z,20.48
2018-07-15T07:28:26.666Z,20.37
2018-07-15T07:29:26.983Z,20.48
2018-07-15T07:30:27.281Z,20.40
2018-07-15T07:31:26.815Z,20.33
2018-07-15T07:32:26.646Z,20.54
2018-07-15T07:33:27.169Z,20.51
2018-07-15T07:34:26.114Z,20.56
2018-07-15T07:35:26.731Z,20.51
2018-07-15T07:36:26.645Z,20.56
2018-07-15T07:37:28.454Z,20.66
2018-07-15T07:38:28.399Z,20.54
2018-07-15T07:39:26.567Z,20.58
2018-07-15T07:40:26.560Z,20.58
2018-07-15T07:41:26.588Z,20.76
2018-07-15T07:42:26.725Z,20.76
2018-07-15T07:43:26.691Z,20.72
2018-07-15T07:44:26.634Z,20.66
2018-07-15T07:45:26.604Z,20.57
2018-07-15T07:46:26.568Z,20.56
2018-07-15T07:47:26.632Z,20.48
2018-07-15T07:48:26.615Z,20.63
2018-07-15T07:49:26.658Z,20.68
2018-07-15T07:50:26.650Z,20.63
2018-07-15T07:51:26.627Z,20.81
2018-07-15T07:52:27.184Z,20.85
2018-07-15T07:53:26.457Z,20.79
2018-07-15T07:54:27.598Z,20.83
2018-07-15T07:55:26.369Z,20.96
2018-07-15T07:56:26.080Z,21.06
2018-07-15T07:57:26.605Z,20.90
2018-07-15T07:58:26.626Z,20.85
2018-07-15T07:59:26.667Z,20.96
2018-07-15T08:00:26.607Z,20.91
2018-07-15T08:01:26.647Z,21.09
2018-07-15T08:02:26.716Z,21.05
2018-07-15T08:03:26.677Z,21.11
2018-07-15T08:04:26.711Z,21.13
2018-07-15T08:05:26.937Z,21.09
2018-07-15T08:06:26.828Z,21.01
2018-07-15T08:07:26.709Z,21.11
2018-07-15T08:08:26.647Z,21.19
2018-07-15T08:09:25.972Z,21.22
2018-07-15T08:10:26.960Z,21.31
2018-07-15T08:11:26.637Z,21.36
2018-07-15T08:12:26.872Z,21.36
2018-07-15T08:13:27.181Z,21.36
2018-07-15T08:14:26.576Z,21.31
2018-07-15T08:15:26.638Z,21.19
2018-07-15T08:16:26.649Z,21.38
2018-07-15T08:17:26.666Z,21.24
2018-07-15T08:18:26.618Z,21.37
2018-07-15T08:19:26.614Z,21.26
2018-07-15T08:20:26.655Z,21.26
2018-07-15T08:21:26.729Z,21.37
2018-07-15T08:22:26.669Z,21.53
2018-07-15T08:23:26.687Z,21.52
2018-07-15T08:24:26.583Z,21.52
2018-07-15T08:25:26.670Z,21.40
2018-07-15T08:26:26.610Z,21.46
2018-07-15T08:27:26.657Z,21.55
2018-07-15T08:28:26.695Z,21.48
2018-07-15T08:29:26.622Z,21.55
2018-07-15T08:30:26.710Z,21.61
2018-07-15T08:31:26.657Z,21.49
2018-07-15T08:32:26.652Z,21.49
2018-07-15T08:33:26.713Z,21.52
2018-07-15T08:34:26.676Z,21.56
2018-07-15T08:35:26.595Z,21.81
2018-07-15T08:36:26.632Z,21.77
2018-07-15T08:37:26.625Z,21.67
2018-07-15T08:38:26.917Z,21.64
2018-07-15T08:39:26.855Z,21.63
2018-07-15T08:40:26.930Z,21.59
2018-07-15T08:41:28.464Z,21.70
2018-07-15T08:42:27.195Z,21.70
2018-07-15T08:43:26.168Z,21.71
2018-07-15T08:44:26.606Z,21.83
2018-07-15T08:45:26.726Z,21.81
2018-07-15T08:46:26.598Z,21.79
2018-07-15T08:47:26.647Z,21.85
2018-07-15T08:48:26.639Z,21.81
2018-07-15T08:49:26.653Z,21.89
2018-07-15T08:50:26.660Z,21.99
2018-07-15T08:51:26.681Z,22.04
2018-07-15T08:52:26.649Z,22.04
2018-07-15T08:53:26.655Z,21.86
2018-07-15T08:54:26.644Z,21.86
2018-07-15T08:55:26.713Z,21.93
2018-07-15T08:56:26.612Z,22.05
2018-07-15T08:57:26.599Z,22.02
2018-07-15T08:58:26.599Z,22.04
2018-07-15T08:59:26.681Z,22.02
2018-07-15T09:00:26.667Z,22.14
2018-07-15T09:01:26.671Z,22.12
2018-07-15T09:02:26.679Z,22.05
2018-07-15T09:03:26.915Z,22.20
2018-07-15T09:04:26.626Z,22.24
2018-07-15T09:05:26.084Z,22.31
2018-07-15T09:06:26.623Z,22.42
2018-07-15T09:07:26.687Z,22.30
2018-07-15T09:08:26.084Z,22.42
2018-07-15T09:09:27.215Z,22.41
2018-07-15T09:10:26.950Z,22.59
2018-07-15T09:11:27.196Z,22.36
2018-07-15T09:12:26.944Z,22.41
2018-07-15T09:13:27.362Z,22.33
2018-07-15T09:14:27.217Z,22.42
2018-07-15T09:15:26.132Z,22.41
2018-07-15T09:16:26.665Z,22.51
2018-07-15T09:17:26.675Z,22.57
2018-07-15T09:18:26.667Z,22.44
2018-07-15T09:19:26.680Z,22.44
2018-07-15T09:20:26.660Z,22.46
2018-07-15T09:21:26.632Z,22.49
2018-07-15T09:22:26.639Z,22.52
2018-07-15T09:23:26.659Z,22.63
2018-07-15T09:24:26.717Z,22.61
2018-07-15T09:25:26.664Z,22.45
2018-07-15T09:26:26.670Z,22.63
2018-07-15T09:27:26.627Z,22.61
2018-07-15T09:28:26.629Z,22.74
2018-07-15T09:29:26.659Z,22.70
2018-07-15T09:30:26.734Z,22.76
2018-07-15T09:31:26.661Z,22.79
2018-07-15T09:32:28.398Z,22.81
2018-07-15T09:33:26.645Z,22.94
2018-07-15T09:34:26.674Z,22.94
2018-07-15T09:35:26.679Z,22.93
2018-07-15T09:36:26.737Z,22.97
2018-07-15T09:37:27.329Z,22.85
2018-07-15T09:38:26.723Z,22.91
2018-07-15T09:39:26.747Z,22.89
2018-07-15T09:40:27.220Z,22.94
2018-07-15T09:41:26.976Z,23.03
2018-07-15T09:42:27.235Z,22.99
2018-07-15T09:43:26.681Z,22.96
2018-07-15T09:44:26.668Z,23.04
2018-07-15T09:45:26.680Z,23.18
2018-07-15T09:46:26.670Z,23.25
2018-07-15T09:47:26.725Z,23.11
2018-07-15T09:48:26.626Z,23.14
2018-07-15T09:49:26.634Z,23.15
2018-07-15T09:50:26.627Z,23.19
2018-07-15T09:51:27.907Z,23.07
2018-07-15T09:52:27.224Z,22.99
2018-07-15T09:53:26.719Z,23.21
2018-07-15T09:54:26.904Z,23.35
2018-07-15T09:55:26.716Z,23.45
2018-07-15T09:56:26.714Z,23.52
2018-07-15T09:57:26.972Z,23.41
2018-07-15T09:58:27.372Z,23.44
2018-07-15T09:59:26.811Z,23.37
2018-07-15T10:00:26.800Z,23.45
2018-07-15T10:01:26.833Z,23.32
2018-07-15T10:02:26.789Z,23.34
2018-07-15T10:03:27.229Z,23.35
2018-07-15T10:04:26.668Z,23.42
2018-07-15T10:05:26.703Z,23.69
2018-07-15T10:06:26.751Z,23.62
2018-07-15T10:07:28.502Z,23.63
2018-07-15T10:08:26.718Z,23.60
2018-07-15T10:09:26.736Z,23.79
2018-07-15T10:10:26.796Z,23.60
2018-07-15T10:11:26.317Z,23.60
2018-07-15T10:12:26.727Z,23.64
2018-07-15T10:13:26.626Z,23.64
2018-07-15T10:14:26.707Z,23.67
2018-07-15T10:15:26.700Z,23.68
2018-07-15T10:16:26.628Z,23.64
2018-07-15T10:17:26.734Z,23.84
2018-07-15T10:18:26.751Z,23.75
2018-07-15T10:19:27.214Z,23.78
2018-07-15T10:20:26.750Z,23.79
2018-07-15T10:21:26.743Z,23.82
2018-07-15T10:22:27.234Z,23.63
2018-07-15T10:23:27.016Z,23.62
2018-07-15T10:24:26.654Z,23.60
2018-07-15T10:25:27.256Z,23.74
2018-07-15T10:26:27.693Z,23.77
2018-07-15T10:27:27.235Z,23.89
2018-07-15T10:28:27.385Z,23.99
2018-07-15T10:29:27.234Z,24.06
2018-07-15T10:30:26.765Z,24.12
2018-07-15T10:31:27.227Z,24.12
2018-07-15T10:32:26.722Z,24.19
2018-07-15T10:33:26.718Z,24.30
2018-07-15T10:34:27.013Z,24.34
2018-07-15T10:35:27.396Z,24.31
2018-07-15T10:36:26.799Z,24.33
2018-07-15T10:37:27.250Z,24.27
2018-07-15T10:38:27.241Z,24.45
2018-07-15T10:39:27.340Z,24.45
2018-07-15T10:40:26.348Z,24.44
2018-07-15T10:41:26.934Z,24.45
2018-07-15T10:42:27.215Z,24.31
2018-07-15T10:43:26.724Z,24.18
2018-07-15T10:44:26.712Z,24.42
2018-07-15T10:45:26.733Z,24.49
2018-07-15T10:46:26.708Z,24.56
2018-07-15T10:47:26.706Z,24.42
2018-07-15T10:48:26.702Z,24.31
2018-07-15T10:49:26.754Z,24.30
2018-07-15T10:50:26.728Z,24.37
2018-07-15T10:51:26.760Z,24.68
2018-07-15T10:52:26.669Z,24.55
2018-07-15T10:53:26.721Z,24.77
2018-07-15T10:54:26.724Z,24.71
2018-07-15T10:55:26.747Z,24.60
2018-07-15T10:56:26.732Z,24.70
2018-07-15T10:57:26.708Z,24.63
2018-07-15T10:58:26.744Z,24.59
2018-07-15T10:59:27.394Z,24.59
2018-07-15T11:00:27.227Z,24.59
2018-07-15T11:01:27.433Z,24.77
2018-07-15T11:02:26.771Z,24.83
2018-07-15T11:03:26.827Z,24.87
2018-07-15T11:04:27.229Z,24.79
2018-07-15T11:05:26.782Z,24.71
2018-07-15T11:06:26.941Z,24.87
2018-07-15T11:07:26.869Z,24.92
2018-07-15T11:08:27.388Z,25.14
2018-07-15T11:09:26.685Z,25.12
2018-07-15T11:10:28.568Z,25.29
2018-07-15T11:11:27.252Z,25.46
2018-07-15T11:12:26.920Z,25.46
2018-07-15T11:13:26.967Z,25.64
2018-07-15T11:14:27.527Z,25.66
2018-07-15T11:15:27.214Z,25.49
2018-07-15T11:16:26.815Z,25.45
2018-07-15T11:17:27.259Z,25.44
2018-07-15T11:18:29.258Z,25.31
2018-07-15T11:19:28.806Z,25.57
2018-07-15T11:20:26.726Z,25.74
2018-07-15T11:21:26.798Z,25.82
2018-07-15T11:22:27.177Z,25.69
2018-07-15T11:23:29.409Z,25.63
2018-07-15T11:24:27.273Z,25.34
2018-07-15T11:25:26.829Z,25.24
2018-07-15T11:26:27.267Z,25.22
2018-07-15T11:27:27.269Z,25.30
2018-07-15T11:28:27.003Z,25.45
2018-07-15T11:29:26.820Z,25.59
2018-07-15T11:30:27.262Z,25.91
2018-07-15T11:31:26.870Z,25.90
2018-07-15T11:32:26.808Z,25.91
2018-07-15T11:33:26.708Z,26.01
2018-07-15T11:34:26.692Z,25.81
2018-07-15T11:35:26.755Z,25.93
2018-07-15T11:36:28.534Z,25.91
2018-07-15T11:37:26.748Z,25.69
2018-07-15T11:38:26.345Z,25.71
2018-07-15T11:39:26.410Z,25.82
2018-07-15T11:40:26.909Z,26.08
2018-07-15T11:41:26.841Z,26.24
2018-07-15T11:42:26.810Z,26.46
2018-07-15T11:43:26.916Z,26.47
2018-07-15T11:44:27.278Z,26.53
2018-07-15T11:45:26.770Z,26.54
2018-07-15T11:46:26.771Z,26.51
2018-07-15T11:47:26.771Z,26.64
2018-07-15T11:48:26.935Z,26.78
2018-07-15T11:49:26.773Z,26.71
2018-07-15T11:50:29.810Z,26.72
2018-07-15T11:51:26.836Z,26.51
2018-07-15T11:52:27.271Z,26.42
2018-07-15T11:53:28.727Z,26.64
2018-07-15T11:54:27.334Z,26.83
2018-07-15T11:55:27.139Z,26.81
2018-07-15T11:56:27.425Z,26.83
2018-07-15T11:57:26.886Z,26.72
2018-07-15T11:58:26.944Z,26.75
2018-07-15T11:59:27.452Z,26.68
2018-07-15T12:00:26.981Z,26.83
2018-07-15T12:01:26.487Z,26.93
2018-07-15T12:02:26.988Z,26.93
2018-07-15T12:03:27.204Z,27.01
2018-07-15T12:04:27.030Z,27.01
2018-07-15T12:05:26.798Z,26.97
2018-07-15T12:06:26.807Z,26.98
2018-07-15T12:07:26.888Z,27.27
2018-07-15T12:08:26.973Z,27.27
2018-07-15T12:09:27.164Z,27.43
2018-07-15T12:10:27.471Z,27.27
2018-07-15T12:11:27.267Z,27.25
2018-07-15T12:12:27.356Z,27.30
2018-07-15T12:13:26.907Z,27.61
2018-07-15T12:14:27.381Z,27.66
2018-07-15T12:15:26.968Z,27.50
2018-07-15T12:16:26.954Z,27.25
2018-07-15T12:17:26.804Z,27.23
2018-07-15T12:18:26.854Z,27.42
2018-07-15T12:19:27.271Z,27.65
2018-07-15T12:20:26.527Z,27.52
2018-07-15T12:21:27.249Z,27.34
2018-07-15T12:22:27.162Z,27.48
2018-07-15T12:23:26.814Z,27.71
2018-07-15T12:24:26.942Z,27.65
2018-07-15T12:25:26.831Z,27.81
2018-07-15T12:26:27.342Z,27.88
2018-07-15T12:27:26.934Z,27.90
2018-07-15T12:28:26.909Z,28.03
2018-07-15T12:29:27.250Z,27.87
2018-07-15T12:30:26.999Z,27.95
2018-07-15T12:31:26.569Z,27.88
2018-07-15T12:32:27.499Z,28.01
2018-07-15T12:33:27.096Z,28.03
2018-07-15T12:34:29.435Z,27.63
2018-07-15T12:35:26.919Z,28.32
2018-07-15T12:36:26.945Z,28.42
2018-07-15T12:37:27.055Z,28.51
2018-07-15T12:38:27.021Z,28.65
2018-07-15T12:39:26.997Z,28.45
2018-07-15T12:40:27.015Z,28.67
2018-07-15T12:41:27.314Z,28.89
2018-07-15T12:42:26.980Z,28.88
2018-07-15T12:43:29.066Z,28.94
2018-07-15T12:44:27.384Z,29.23
2018-07-15T12:45:29.061Z,28.87
2018-07-15T12:46:27.464Z,29.00
2018-07-15T12:47:27.450Z,29.37
2018-07-15T12:48:26.943Z,29.57
2018-07-15T12:49:27.542Z,29.35
2018-07-15T12:50:26.812Z,29.89
2018-07-15T12:51:27.323Z,29.64
2018-07-15T12:52:27.289Z,29.78
2018-07-15T12:53:27.336Z,29.48
2018-07-15T12:54:27.447Z,29.67